createdAt,value
2019-05-26T00:00:16.708Z,13.30
2019-05-26T00:02:45.115Z,13.30
2019-05-26T00:05:13.671Z,13.30
2019-05-26T00:07:42.090Z,13.30
2019-05-26T00:10:10.853Z,13.30
2019-05-26T00:12:39.342Z,13.40
2019-05-26T00:15:08.099Z,13.40
2019-05-26T00:17:36.526Z,13.30
2019-05-26T00:20:08.523Z,13.30
2019-05-26T00:22:37.054Z,13.30
2019-05-26T00:25:07.266Z,13.30
2019-05-26T00:27:35.667Z,13.40
2019-05-26T00:30:06.339Z,13.30
2019-05-26T00:32:34.748Z,13.40
2019-05-26T00:35:04.077Z,13.40
2019-05-26T00:37:47.835Z,13.40
2019-05-26T00:40:03.236Z,13.40
2019-05-26T00:42:31.643Z,13.40
2019-05-26T00:45:00.068Z,13.40
2019-05-26T00:47:28.472Z,13.40
2019-05-26T00:49:56.955Z,13.40
2019-05-26T00:52:25.427Z,13.40
2019-05-26T00:54:53.847Z,13.40
2019-05-26T00:57:22.257Z,13.40
2019-05-26T00:59:50.679Z,13.40
2019-05-26T01:02:19.152Z,13.40
2019-05-26T01:04:47.571Z,13.30
2019-05-26T01:07:15.977Z,13.40
2019-05-26T01:09:44.398Z,13.40
2019-05-26T01:12:12.807Z,13.40
2019-05-26T01:14:41.212Z,13.30
2019-05-26T01:17:09.626Z,13.30
2019-05-26T01:19:38.031Z,13.20
2019-05-26T01:22:06.457Z,13.30
2019-05-26T01:24:34.856Z,13.30
2019-05-26T01:27:03.413Z,13.20
2019-05-26T01:29:31.812Z,13.20
2019-05-26T01:32:00.230Z,13.10
2019-05-26T01:34:28.631Z,13.10
2019-05-26T01:36:57.513Z,13.20
2019-05-26T01:39:26.153Z,13.10
2019-05-26T01:41:54.583Z,13.00
2019-05-26T01:44:22.988Z,13.00
2019-05-26T01:46:51.399Z,13.00
2019-05-26T01:49:19.864Z,12.90
2019-05-26T01:51:48.308Z,13.00
2019-05-26T01:54:16.711Z,13.00
2019-05-26T01:56:45.127Z,13.00
2019-05-26T01:59:13.548Z,12.90
2019-05-26T02:01:41.960Z,12.90
2019-05-26T02:04:10.363Z,12.90
2019-05-26T02:06:38.790Z,12.80
2019-05-26T02:09:07.931Z,12.90
2019-05-26T02:11:36.344Z,12.90
2019-05-26T02:14:05.592Z,12.90
2019-05-26T02:16:34.027Z,12.90
2019-05-26T02:19:02.516Z,12.80
2019-05-26T02:21:30.941Z,12.80
2019-05-26T02:23:59.348Z,12.80
2019-05-26T02:26:27.755Z,12.90
2019-05-26T02:28:56.168Z,12.90
2019-05-26T02:31:24.613Z,12.90
2019-05-26T02:33:53.074Z,12.90
2019-05-26T02:36:21.511Z,12.90
2019-05-26T02:39:02.063Z,13.00
2019-05-26T02:41:20.117Z,13.00
2019-05-26T02:43:48.608Z,13.10
2019-05-26T02:46:17.012Z,13.00
2019-05-26T02:48:45.434Z,12.90
2019-05-26T02:51:13.831Z,12.90
2019-05-26T02:53:42.257Z,12.90
2019-05-26T02:56:11.000Z,12.90
2019-05-26T02:58:39.417Z,12.90
2019-05-26T03:01:07.993Z,12.90
2019-05-26T03:03:36.599Z,12.90
2019-05-26T03:06:05.545Z,12.90
2019-05-26T03:08:35.855Z,12.90
2019-05-26T03:11:04.412Z,12.80
2019-05-26T03:13:35.725Z,12.80
2019-05-26T03:16:05.499Z,12.90
2019-05-26T03:18:36.025Z,12.90
2019-05-26T03:21:04.977Z,13.00
2019-05-26T03:23:33.599Z,12.90
2019-05-26T03:26:02.067Z,13.00
2019-05-26T03:28:30.547Z,13.00
2019-05-26T03:30:58.977Z,13.00
2019-05-26T03:33:27.525Z,13.10
2019-05-26T03:35:56.040Z,13.10
2019-05-26T03:38:24.497Z,13.10
2019-05-26T03:40:52.905Z,13.10
2019-05-26T03:43:21.320Z,13.10
2019-05-26T03:46:10.687Z,13.10
2019-05-26T03:48:39.172Z,13.00
2019-05-26T03:51:07.581Z,13.00
2019-05-26T03:53:36.006Z,13.10
2019-05-26T03:56:04.413Z,13.10
2019-05-26T03:58:32.886Z,13.10
2019-05-26T04:01:01.331Z,13.00
2019-05-26T04:03:29.749Z,13.00
2019-05-26T04:05:58.180Z,13.00
2019-05-26T04:08:26.661Z,13.00
2019-05-26T04:10:55.085Z,13.00
2019-05-26T04:13:23.502Z,12.90
2019-05-26T04:15:51.911Z,13.00
2019-05-26T04:18:20.312Z,12.90
2019-05-26T04:20:48.728Z,12.90
2019-05-26T04:23:17.171Z,12.90
2019-05-26T04:25:45.628Z,12.90
2019-05-26T04:28:14.037Z,12.90
2019-05-26T04:30:42.458Z,12.90
2019-05-26T04:33:10.866Z,12.90
2019-05-26T04:35:39.292Z,12.90
2019-05-26T04:38:07.757Z,12.90
2019-05-26T04:40:36.768Z,13.00
2019-05-26T04:43:05.232Z,13.00
2019-05-26T04:45:33.660Z,13.00
2019-05-26T04:48:02.069Z,13.10
2019-05-26T04:50:30.489Z,13.10
2019-05-26T04:53:06.025Z,13.10
2019-05-26T04:55:29.074Z,13.10
2019-05-26T04:57:57.528Z,13.10
2019-05-26T05:00:26.109Z,13.10
2019-05-26T05:02:54.521Z,13.20
2019-05-26T05:05:22.933Z,13.20
2019-05-26T05:07:51.340Z,13.20
2019-05-26T05:10:19.748Z,13.30
2019-05-26T05:12:48.161Z,13.40
2019-05-26T05:15:16.724Z,13.40
2019-05-26T05:17:45.123Z,13.40
2019-05-26T05:20:13.775Z,13.40
2019-05-26T05:22:42.188Z,13.40
2019-05-26T05:25:15.118Z,13.40
2019-05-26T05:27:40.880Z,13.50
2019-05-26T05:30:09.835Z,13.50
2019-05-26T05:32:38.316Z,13.60
2019-05-26T05:35:08.171Z,13.60
2019-05-26T05:37:36.824Z,13.70
2019-05-26T05:40:08.499Z,13.70
2019-05-26T05:42:36.985Z,13.80
2019-05-26T05:45:09.201Z,13.80
2019-05-26T05:47:37.867Z,13.90
2019-05-26T05:50:11.217Z,13.90
2019-05-26T05:52:39.647Z,14.00
2019-05-26T05:55:08.585Z,14.20
2019-05-26T05:57:37.005Z,14.30
2019-05-26T06:00:07.060Z,14.30
2019-05-26T06:02:35.479Z,14.50
2019-05-26T06:05:06.129Z,14.60
2019-05-26T06:07:34.543Z,14.70
2019-05-26T06:10:04.512Z,14.70
2019-05-26T06:12:32.940Z,14.90
2019-05-26T06:15:01.344Z,15.00
2019-05-26T06:17:29.879Z,15.00
2019-05-26T06:19:58.398Z,15.00
2019-05-26T06:22:26.807Z,15.10
2019-05-26T06:24:55.228Z,15.10
2019-05-26T06:27:23.633Z,15.10
2019-05-26T06:29:58.870Z,15.20
2019-05-26T06:32:22.171Z,15.30
2019-05-26T06:34:50.595Z,15.30
2019-05-26T06:37:18.997Z,15.50
2019-05-26T06:39:47.416Z,15.60
2019-05-26T06:42:15.824Z,15.70
2019-05-26T06:44:52.961Z,15.80
2019-05-26T06:47:14.375Z,15.90
2019-05-26T06:49:42.792Z,16.00
2019-05-26T06:52:11.201Z,16.20
2019-05-26T06:54:39.624Z,16.30
2019-05-26T06:57:08.047Z,16.40
2019-05-26T06:59:36.476Z,16.40
2019-05-26T07:02:05.054Z,16.50
2019-05-26T07:04:33.469Z,16.50
2019-05-26T07:07:01.880Z,16.60
2019-05-26T07:09:30.314Z,16.70
2019-05-26T07:12:00.418Z,16.80
2019-05-26T07:14:28.862Z,16.80
2019-05-26T07:16:57.292Z,16.80
2019-05-26T07:19:25.683Z,17.00
2019-05-26T07:21:54.107Z,17.00
2019-05-26T07:24:22.505Z,17.10
2019-05-26T07:26:50.926Z,17.20
2019-05-26T07:29:19.324Z,17.30
2019-05-26T07:31:47.822Z,17.40
2019-05-26T07:34:16.229Z,17.50
2019-05-26T07:36:44.639Z,17.50
2019-05-26T07:39:13.112Z,17.60
2019-05-26T07:41:41.526Z,17.60
2019-05-26T07:44:10.010Z,17.70
2019-05-26T07:46:38.423Z,17.70
2019-05-26T07:49:06.827Z,17.80
2019-05-26T07:51:35.245Z,17.90
2019-05-26T07:54:03.906Z,17.90
2019-05-26T07:56:32.431Z,18.00
2019-05-26T07:59:00.832Z,18.00
2019-05-26T08:01:35.635Z,17.90
2019-05-26T08:03:59.479Z,18.00
2019-05-26T08:06:27.880Z,18.00
2019-05-26T08:08:56.303Z,18.20
2019-05-26T08:11:24.783Z,18.20
2019-05-26T08:13:53.200Z,18.30
2019-05-26T08:16:21.599Z,18.40
2019-05-26T08:18:50.031Z,18.60
2019-05-26T08:21:18.440Z,18.70
2019-05-26T08:23:46.866Z,19.00
2019-05-26T08:26:15.272Z,19.20
2019-05-26T08:28:43.684Z,19.30
2019-05-26T08:31:13.442Z,19.40
2019-05-26T08:33:41.987Z,19.50
2019-05-26T08:36:10.387Z,19.60
2019-05-26T08:38:38.815Z,19.70
2019-05-26T08:41:07.227Z,19.80
2019-05-26T08:43:35.651Z,19.80
2019-05-26T08:46:04.208Z,19.70
2019-05-26T08:48:32.620Z,20.00
2019-05-26T08:51:01.042Z,20.10
2019-05-26T08:53:29.443Z,20.10
2019-05-26T08:55:57.857Z,20.00
2019-05-26T08:58:29.305Z,19.90
2019-05-26T09:00:56.848Z,19.80
2019-05-26T09:03:25.268Z,19.80
2019-05-26T09:05:53.691Z,19.90
2019-05-26T09:08:22.096Z,20.00
2019-05-26T09:10:50.503Z,20.10
2019-05-26T09:13:18.910Z,20.00
2019-05-26T09:15:47.323Z,19.80
2019-05-26T09:18:15.734Z,19.80
2019-05-26T09:20:44.143Z,19.90
2019-05-26T09:23:12.557Z,20.20
2019-05-26T09:25:40.974Z,20.40
2019-05-26T09:28:09.376Z,20.80
2019-05-26T09:30:37.859Z,20.90
2019-05-26T09:33:06.263Z,21.10
2019-05-26T09:35:34.692Z,21.30
2019-05-26T09:38:03.091Z,21.40
2019-05-26T09:40:31.515Z,21.40
2019-05-26T09:43:13.271Z,21.10
2019-05-26T09:45:30.056Z,20.90
2019-05-26T09:47:58.733Z,20.80
2019-05-26T09:50:27.144Z,20.70
2019-05-26T09:52:55.576Z,20.70
2019-05-26T09:55:23.978Z,20.40
2019-05-26T09:57:52.392Z,20.40
2019-05-26T10:00:21.439Z,20.50
2019-05-26T10:02:49.941Z,20.60
2019-05-26T10:05:18.492Z,20.60
2019-05-26T10:07:46.919Z,20.20
2019-05-26T10:10:15.852Z,20.00
2019-05-26T10:12:44.268Z,20.00
2019-05-26T10:15:13.369Z,19.90
2019-05-26T10:17:41.799Z,19.70
2019-05-26T10:20:10.646Z,19.70
2019-05-26T10:22:39.057Z,19.70
2019-05-26T10:25:07.795Z,19.60
2019-05-26T10:27:36.275Z,19.50
2019-05-26T10:30:13.940Z,19.40
2019-05-26T10:32:42.356Z,19.60
2019-05-26T10:35:50.800Z,19.70
2019-05-26T10:38:19.920Z,19.70
2019-05-26T10:40:48.357Z,19.80
2019-05-26T10:43:16.772Z,19.90
2019-05-26T10:45:45.190Z,19.90
2019-05-26T10:48:18.809Z,20.20
2019-05-26T10:50:51.736Z,20.50
2019-05-26T10:53:30.553Z,20.80
2019-05-26T10:56:01.901Z,21.00
2019-05-26T10:58:30.329Z,21.20
2019-05-26T11:01:02.292Z,21.30
2019-05-26T11:03:30.893Z,21.20
2019-05-26T11:05:59.321Z,21.20
2019-05-26T11:08:27.792Z,21.20
2019-05-26T11:10:56.238Z,21.20
2019-05-26T11:13:24.697Z,21.10
2019-05-26T11:15:53.104Z,21.40
2019-05-26T11:18:21.508Z,21.50
2019-05-26T11:20:49.923Z,21.70
2019-05-26T11:23:18.343Z,21.80
2019-05-26T11:25:46.780Z,21.70
2019-05-26T11:28:15.236Z,21.70
2019-05-26T11:30:43.659Z,21.80
2019-05-26T11:33:12.107Z,22.00
2019-05-26T11:35:41.838Z,22.20
2019-05-26T11:38:10.283Z,22.40
2019-05-26T11:40:38.695Z,22.20
2019-05-26T11:43:16.459Z,22.00
2019-05-26T11:45:37.250Z,22.00
2019-05-26T11:48:05.770Z,22.10
2019-05-26T11:50:34.245Z,22.20
2019-05-26T11:53:02.660Z,22.40
2019-05-26T11:55:31.147Z,22.70
2019-05-26T11:57:59.568Z,22.70
2019-05-26T12:00:27.978Z,22.80
2019-05-26T12:02:56.395Z,22.70
2019-05-26T12:05:24.788Z,22.40
2019-05-26T12:07:53.215Z,22.40
2019-05-26T12:10:21.688Z,22.00
2019-05-26T12:12:50.096Z,22.00
2019-05-26T12:15:18.836Z,22.20
2019-05-26T12:17:47.258Z,22.40
2019-05-26T12:20:15.895Z,22.50
2019-05-26T12:22:44.317Z,22.70
2019-05-26T12:25:12.792Z,22.90
2019-05-26T12:27:41.216Z,23.20
2019-05-26T12:30:10.963Z,23.20
2019-05-26T12:32:39.370Z,22.80
2019-05-26T12:35:09.004Z,22.50
2019-05-26T12:37:37.408Z,22.50
2019-05-26T12:40:09.586Z,22.20
2019-05-26T12:42:38.047Z,22.20
2019-05-26T12:45:09.819Z,22.30
2019-05-26T12:47:38.399Z,22.40
2019-05-26T12:50:08.248Z,22.50
2019-05-26T12:52:36.892Z,22.50
2019-05-26T12:55:09.036Z,22.70
2019-05-26T12:57:36.288Z,22.80
2019-05-26T13:00:11.717Z,22.90
2019-05-26T13:02:40.123Z,23.00
2019-05-26T13:05:09.587Z,23.10
2019-05-26T13:07:38.059Z,23.30
2019-05-26T13:10:09.076Z,23.70
2019-05-26T13:12:37.552Z,23.60
2019-05-26T13:15:10.575Z,23.50
2019-05-26T13:17:38.989Z,23.40
2019-05-26T13:20:08.432Z,23.40
2019-05-26T13:22:37.258Z,23.20
2019-05-26T13:25:07.690Z,23.10
2019-05-26T13:27:36.112Z,23.20
2019-05-26T13:30:24.989Z,23.30
2019-05-26T13:32:53.400Z,23.70
2019-05-26T13:35:21.939Z,23.90
2019-05-26T13:37:50.355Z,24.10
2019-05-26T13:40:19.697Z,24.20
2019-05-26T13:42:48.129Z,24.30
2019-05-26T13:45:22.807Z,24.20
2019-05-26T13:47:46.971Z,23.90
2019-05-26T13:50:16.088Z,24.00
2019-05-26T13:52:44.564Z,24.00
2019-05-26T13:55:13.599Z,24.00
2019-05-26T13:57:42.020Z,24.40
2019-05-26T14:00:18.152Z,24.50
2019-05-26T14:02:47.032Z,24.30
2019-05-26T14:05:15.575Z,24.40
2019-05-26T14:07:43.994Z,24.60
2019-05-26T14:10:12.758Z,24.60
2019-05-26T14:12:41.245Z,24.60
2019-05-26T14:15:10.385Z,24.60
2019-05-26T14:17:39.540Z,24.20
2019-05-26T14:20:10.001Z,23.90
2019-05-26T14:22:38.464Z,23.90
2019-05-26T14:25:08.012Z,23.90
2019-05-26T14:27:36.481Z,24.10
2019-05-26T14:30:07.331Z,24.20
2019-05-26T14:32:35.732Z,23.70
2019-05-26T14:35:06.279Z,23.60
2019-05-26T14:37:34.696Z,23.20
2019-05-26T14:40:04.587Z,23.10
2019-05-26T14:42:32.984Z,23.40
2019-05-26T14:45:03.857Z,23.50
2019-05-26T14:47:31.605Z,23.50
2019-05-26T14:50:00.026Z,23.60
2019-05-26T14:52:28.428Z,23.50
2019-05-26T14:54:56.913Z,23.40
2019-05-26T14:57:25.315Z,23.20
2019-05-26T14:59:53.735Z,23.30
2019-05-26T15:02:22.152Z,23.30
2019-05-26T15:04:50.601Z,23.40
2019-05-26T15:07:19.072Z,23.20
2019-05-26T15:09:47.552Z,23.10
2019-05-26T15:12:15.967Z,22.80
2019-05-26T15:14:44.372Z,22.70
2019-05-26T15:17:12.824Z,22.50
2019-05-26T15:19:41.220Z,22.60
2019-05-26T15:22:09.717Z,22.80
2019-05-26T15:24:38.115Z,23.00
2019-05-26T15:27:06.527Z,23.20
2019-05-26T15:29:34.949Z,23.40
2019-05-26T15:32:03.417Z,23.70
2019-05-26T15:34:31.868Z,23.70
2019-05-26T15:37:00.292Z,23.60
2019-05-26T15:39:28.703Z,23.60
2019-05-26T15:41:57.108Z,23.70
2019-05-26T15:44:25.517Z,23.70
2019-05-26T15:46:53.924Z,24.70
2019-05-26T15:49:22.341Z,26.50
2019-05-26T15:51:50.786Z,28.30
2019-05-26T15:54:19.260Z,30.20
2019-05-26T15:56:47.663Z,30.60
2019-05-26T15:59:16.081Z,31.50
2019-05-26T16:01:46.491Z,32.40
2019-05-26T16:04:14.976Z,32.80
2019-05-26T16:06:43.384Z,33.30
2019-05-26T16:09:11.835Z,33.80
2019-05-26T16:11:43.289Z,33.10
2019-05-26T16:14:10.376Z,33.60
2019-05-26T16:16:41.609Z,34.20
2019-05-26T16:19:08.924Z,33.60
2019-05-26T16:21:37.326Z,33.70
2019-05-26T16:24:05.811Z,34.50
2019-05-26T16:26:34.207Z,34.60
2019-05-26T16:29:02.895Z,35.30
2019-05-26T16:31:31.306Z,35.50
2019-05-26T16:33:59.715Z,36.00
2019-05-26T16:36:28.134Z,35.80
2019-05-26T16:38:56.532Z,35.60
2019-05-26T16:41:24.943Z,35.40
2019-05-26T16:43:53.379Z,35.70
2019-05-26T16:46:21.800Z,35.80
2019-05-26T16:48:50.205Z,35.70
2019-05-26T16:51:18.894Z,34.70
2019-05-26T16:53:47.433Z,34.70
2019-05-26T16:56:15.848Z,35.10
2019-05-26T16:58:44.256Z,35.10
2019-05-26T17:01:12.747Z,35.20
2019-05-26T17:03:41.350Z,34.90
2019-05-26T17:06:09.768Z,34.40
2019-05-26T17:08:38.185Z,34.30
2019-05-26T17:11:06.598Z,34.60
2019-05-26T17:13:35.000Z,34.90
2019-05-26T17:16:03.416Z,34.60
2019-05-26T17:18:31.819Z,34.80
2019-05-26T17:21:00.423Z,34.90
2019-05-26T17:23:28.996Z,35.30
2019-05-26T17:25:57.407Z,35.40
2019-05-26T17:28:25.820Z,34.90
2019-05-26T17:30:54.234Z,34.50
2019-05-26T17:33:22.710Z,33.90
2019-05-26T17:35:51.120Z,33.50
2019-05-26T17:38:19.538Z,33.40
2019-05-26T17:40:47.936Z,32.90
2019-05-26T17:43:16.356Z,32.20
2019-05-26T17:45:46.200Z,31.70
2019-05-26T17:48:14.616Z,31.70
2019-05-26T17:50:43.093Z,31.70
2019-05-26T17:53:11.505Z,31.80
2019-05-26T17:55:39.980Z,31.40
2019-05-26T17:58:08.515Z,31.00
2019-05-26T18:00:37.015Z,31.00
2019-05-26T18:03:05.455Z,30.40
2019-05-26T18:05:33.877Z,30.20
2019-05-26T18:08:02.291Z,30.00
2019-05-26T18:10:30.691Z,29.80
2019-05-26T18:12:59.147Z,29.50
2019-05-26T18:15:27.569Z,29.10
2019-05-26T18:17:56.060Z,27.80
2019-05-26T18:20:24.464Z,26.40
2019-05-26T18:22:53.054Z,25.20
2019-05-26T18:25:21.542Z,24.20
2019-05-26T18:27:49.985Z,23.40
2019-05-26T18:30:18.680Z,22.70
2019-05-26T18:32:47.200Z,22.00
2019-05-26T18:35:15.868Z,21.70
2019-05-26T18:37:44.283Z,21.40
2019-05-26T18:40:13.128Z,21.00
2019-05-26T18:42:41.540Z,20.80
2019-05-26T18:45:10.784Z,20.60
2019-05-26T18:47:39.206Z,20.40
2019-05-26T18:50:08.037Z,20.10
2019-05-26T18:52:39.600Z,19.90
2019-05-26T18:55:08.540Z,19.70
2019-05-26T18:57:36.948Z,19.50
2019-05-26T19:00:06.993Z,19.30
2019-05-26T19:02:35.407Z,19.20
2019-05-26T19:05:05.353Z,19.10
2019-05-26T19:07:33.824Z,19.00
2019-05-26T19:10:02.240Z,18.90
2019-05-26T19:12:30.715Z,18.70
2019-05-26T19:14:59.139Z,18.60
2019-05-26T19:17:27.588Z,18.50
2019-05-26T19:19:56.041Z,18.40
2019-05-26T19:22:24.551Z,18.20
2019-05-26T19:24:53.051Z,18.00
2019-05-26T19:27:21.465Z,17.90
2019-05-26T19:29:49.881Z,17.80
2019-05-26T19:32:18.292Z,17.70
2019-05-26T19:34:46.707Z,17.70
2019-05-26T19:37:15.135Z,17.60
2019-05-26T19:39:43.543Z,17.50
2019-05-26T19:42:11.954Z,17.40
2019-05-26T19:44:40.390Z,17.40
2019-05-26T19:47:08.863Z,17.30
2019-05-26T19:49:37.286Z,17.20
2019-05-26T19:52:06.051Z,17.10
2019-05-26T19:54:34.475Z,17.00
2019-05-26T19:57:02.879Z,16.90
2019-05-26T19:59:31.291Z,16.80
2019-05-26T20:02:16.955Z,16.70
2019-05-26T20:04:29.975Z,16.60
2019-05-26T20:06:58.381Z,16.50
2019-05-26T20:09:26.790Z,16.40
2019-05-26T20:11:55.301Z,16.30
2019-05-26T20:14:24.149Z,16.20
2019-05-26T20:16:52.548Z,16.10
2019-05-26T20:19:20.960Z,16.00
2019-05-26T20:21:49.367Z,15.90
2019-05-26T20:24:17.846Z,15.90
2019-05-26T20:26:46.264Z,15.80
2019-05-26T20:29:14.676Z,15.80
2019-05-26T20:31:43.085Z,15.80
2019-05-26T20:34:11.492Z,15.80
2019-05-26T20:36:39.907Z,15.70
2019-05-26T20:39:09.249Z,15.70
2019-05-26T20:41:38.445Z,15.70
2019-05-26T20:44:06.844Z,15.50
2019-05-26T20:46:35.264Z,15.50
2019-05-26T20:49:03.678Z,15.40
2019-05-26T20:51:32.089Z,15.30
2019-05-26T20:54:00.493Z,15.30
2019-05-26T20:56:28.909Z,15.30
2019-05-26T20:58:57.309Z,15.20
2019-05-26T21:01:25.787Z,15.20
2019-05-26T21:03:54.199Z,15.20
2019-05-26T21:06:22.611Z,15.10
2019-05-26T21:08:57.857Z,15.00
2019-05-26T21:11:26.267Z,15.00
2019-05-26T21:13:54.676Z,14.90
2019-05-26T21:16:23.088Z,14.90
2019-05-26T21:18:51.492Z,14.80
2019-05-26T21:21:19.903Z,14.70
2019-05-26T21:23:48.310Z,14.70
2019-05-26T21:26:16.731Z,14.60
2019-05-26T21:28:45.132Z,14.60
2019-05-26T21:31:13.544Z,14.50
2019-05-26T21:33:41.951Z,14.50
2019-05-26T21:36:10.364Z,14.50
2019-05-26T21:38:38.771Z,14.40
2019-05-26T21:41:26.524Z,14.20
2019-05-26T21:43:54.951Z,14.10
2019-05-26T21:46:23.411Z,14.00
2019-05-26T21:48:51.819Z,13.90
2019-05-26T21:51:20.240Z,13.90
2019-05-26T21:53:48.649Z,13.90
2019-05-26T21:56:17.063Z,14.00
2019-05-26T21:58:45.732Z,13.80
2019-05-26T22:01:14.280Z,13.80
2019-05-26T22:03:42.748Z,13.80
2019-05-26T22:06:11.554Z,13.80
2019-05-26T22:08:39.996Z,13.80
2019-05-26T22:11:08.413Z,13.70
2019-05-26T22:13:36.811Z,13.70
2019-05-26T22:16:05.234Z,13.60
2019-05-26T22:18:33.655Z,13.60
2019-05-26T22:21:02.074Z,13.50
2019-05-26T22:23:30.480Z,13.50
2019-05-26T22:25:58.895Z,13.40
2019-05-26T22:28:27.837Z,13.40
2019-05-26T22:31:15.750Z,13.40
2019-05-26T22:33:44.505Z,13.30
2019-05-26T22:36:12.992Z,13.20
2019-05-26T22:38:41.523Z,13.10
2019-05-26T22:41:10.064Z,13.10
2019-05-26T22:43:38.661Z,13.00
2019-05-26T22:46:07.089Z,13.00
2019-05-26T22:48:35.659Z,13.00
2019-05-26T22:51:04.147Z,13.00
2019-05-26T22:53:32.612Z,12.90
2019-05-26T22:56:01.153Z,12.90
2019-05-26T22:58:29.645Z,12.80
2019-05-26T23:00:58.274Z,12.80
2019-05-26T23:03:26.736Z,12.70
2019-05-26T23:05:55.164Z,12.70
2019-05-26T23:08:23.700Z,12.60
2019-05-26T23:10:52.194Z,12.60
2019-05-26T23:13:20.721Z,12.60
2019-05-26T23:15:49.170Z,12.60
2019-05-26T23:18:17.644Z,12.60
2019-05-26T23:20:46.160Z,12.60
2019-05-26T23:23:14.624Z,12.60
2019-05-26T23:25:43.023Z,12.50
2019-05-26T23:28:11.437Z,12.50
2019-05-26T23:30:39.848Z,12.50
2019-05-26T23:33:08.260Z,12.40
2019-05-26T23:35:36.661Z,12.30
2019-05-26T23:38:05.311Z,12.30
2019-05-26T23:40:33.745Z,12.20
2019-05-26T23:43:02.213Z,12.20
2019-05-26T23:45:30.685Z,12.20
2019-05-26T23:47:59.234Z,12.10
2019-05-26T23:50:27.812Z,12.10
2019-05-26T23:52:56.276Z,12.20
2019-05-26T23:55:24.796Z,12.10
2019-05-26T23:57:53.290Z,12.10
